sensor_id;sensor_type;location;lat;lon;timestamp;pressure;altitude;pressure_sealevel;temperature;humidity
56594;BME280;42474;51.660;5.824;2023-01-31T00:03:05;102400.0;;;3.9;83.0
56594;BME280;42474;51.660;5.824;2023-01-31T00:08:05;102410.0;;;3.9;83.0
56594;BME280;42474;51.660;5.824;2023-01-31T00:13:05;102420.0;;;3.9;83.0
56594;BME280;42474;51.660;5.824;2023-01-31T00:18:06;102420.0;;;3.9;83.0
56594;BME280;42474;51.660;5.824;2023-01-31T00:23:06;102420.0;;;3.8;83.0
56594;BME280;42474;51.660;5.824;2023-01-31T00:28:06;102430.0;;;3.8;83.0
56594;BME280;42474;51.660;5.824;2023-01-31T00:33:05;102440.0;;;3.7;83.0
56594;BME280;42474;51.660;5.824;2023-01-31T00:38:06;102420.0;;;3.7;83.0
56594;BME280;42474;51.660;5.824;2023-01-31T00:43:05;102420.0;;;3.7;83.0
56594;BME280;42474;51.660;5.824;2023-01-31T00:48:05;102420.0;;;3.6;83.0
56594;BME280;42474;51.660;5.824;2023-01-31T00:53:06;102400.0;;;3.6;83.0
56594;BME280;42474;51.660;5.824;2023-01-31T00:58:06;102400.0;;;3.5;83.5
56594;BME280;42474;51.660;5.824;2023-01-31T01:03:06;102410.0;;;3.5;83.5
56594;BME280;42474;51.660;5.824;2023-01-31T01:08:06;102400.0;;;3.4;84.0
56594;BME280;42474;51.660;5.824;2023-01-31T01:13:05;102390.0;;;3.4;84.0
56594;BME280;42474;51.660;5.824;2023-01-31T01:18:06;102400.0;;;3.4;84.5
56594;BME280;42474;51.660;5.824;2023-01-31T01:23:05;102390.0;;;3.4;84.5
56594;BME280;42474;51.660;5.824;2023-01-31T01:28:05;102370.0;;;3.4;85.0
56594;BME280;42474;51.660;5.824;2023-01-31T01:33:06;102380.0;;;3.4;85.0
56594;BME280;42474;51.660;5.824;2023-01-31T01:38:05;102380.0;;;3.4;85.5
56594;BME280;42474;51.660;5.824;2023-01-31T01:43:08;102370.0;;;3.4;85.5
56594;BME280;42474;51.660;5.824;2023-01-31T01:48:13;102370.0;;;3.4;85.5
56594;BME280;42474;51.660;5.824;2023-01-31T01:53:13;102380.0;;;3.5;85.5
56594;BME280;42474;51.660;5.824;2023-01-31T01:58:08;102370.0;;;3.5;86.0
56594;BME280;42474;51.660;5.824;2023-01-31T02:03:07;102370.0;;;3.6;85.5
56594;BME280;42474;51.660;5.824;2023-01-31T02:08:06;102370.0;;;3.6;85.5
56594;BME280;42474;51.660;5.824;2023-01-31T02:13:05;102370.0;;;3.6;85.5
56594;BME280;42474;51.660;5.824;2023-01-31T02:18:07;102380.0;;;3.6;85.5
56594;BME280;42474;51.660;5.824;2023-01-31T02:25:09;102390.0;;;3.7;85.5
56594;BME280;42474;51.660;5.824;2023-01-31T02:33:22;102390.0;;;3.7;85.5
56594;BME280;42474;51.660;5.824;2023-01-31T02:38:19;102390.0;;;3.8;85.5
56594;BME280;42474;51.660;5.824;2023-01-31T02:43:07;102380.0;;;3.9;85.5
56594;BME280;42474;51.660;5.824;2023-01-31T02:47:52;102390.0;;;3.9;85.5
56594;BME280;42474;51.660;5.824;2023-01-31T02:51:35;102380.0;;;3.9;85.0
56594;BME280;42474;51.660;5.824;2023-01-31T02:54:13;102370.0;;;3.9;85.5
56594;BME280;42474;51.660;5.824;2023-01-31T02:58:07;102360.0;;;3.9;85.5
56594;BME280;42474;51.660;5.824;2023-01-31T03:03:07;102370.0;;;4.0;85.5
56594;BME280;42474;51.660;5.824;2023-01-31T03:08:06;102360.0;;;4.0;86.0
56594;BME280;42474;51.660;5.824;2023-01-31T03:13:24;102360.0;;;4.1;86.5
56594;BME280;42474;51.660;5.824;2023-01-31T03:18:19;102350.0;;;4.2;86.5
56594;BME280;42474;51.660;5.824;2023-01-31T03:23:17;102350.0;;;4.3;86.5
56594;BME280;42474;51.660;5.824;2023-01-31T03:28:09;102340.0;;;4.3;86.5
56594;BME280;42474;51.660;5.824;2023-01-31T03:33:17;102330.0;;;4.4;86.5
56594;BME280;42474;51.660;5.824;2023-01-31T03:43:21;102330.0;;;4.5;87.0
56594;BME280;42474;51.660;5.824;2023-01-31T03:48:08;102320.0;;;4.6;87.0
56594;BME280;42474;51.660;5.824;2023-01-31T03:53:13;102320.0;;;4.6;87.0
56594;BME280;42474;51.660;5.824;2023-01-31T03:58:07;102310.0;;;4.7;87.0
56594;BME280;42474;51.660;5.824;2023-01-31T04:03:10;102310.0;;;4.7;87.0
56594;BME280;42474;51.660;5.824;2023-01-31T04:08:06;102300.0;;;4.8;87.5
56594;BME280;42474;51.660;5.824;2023-01-31T04:13:05;102310.0;;;4.8;87.5
56594;BME280;42474;51.660;5.824;2023-01-31T04:18:06;102300.0;;;4.9;87.5
56594;BME280;42474;51.660;5.824;2023-01-31T04:23:05;102290.0;;;4.9;87.5
56594;BME280;42474;51.660;5.824;2023-01-31T04:28:05;102300.0;;;4.9;87.5
56594;BME280;42474;51.660;5.824;2023-01-31T04:33:06;102290.0;;;4.9;87.5
56594;BME280;42474;51.660;5.824;2023-01-31T04:38:05;102290.0;;;4.9;87.5
56594;BME280;42474;51.660;5.824;2023-01-31T04:43:05;102280.0;;;4.9;87.5
56594;BME280;42474;51.660;5.824;2023-01-31T04:48:06;102280.0;;;4.9;87.5
56594;BME280;42474;51.660;5.824;2023-01-31T04:53:06;102280.0;;;4.9;88.0
56594;BME280;42474;51.660;5.824;2023-01-31T04:58:06;102270.0;;;4.9;88.0
56594;BME280;42474;51.660;5.824;2023-01-31T05:03:06;102260.0;;;4.9;87.5
56594;BME280;42474;51.660;5.824;2023-01-31T05:08:06;102270.0;;;4.9;88.0
56594;BME280;42474;51.660;5.824;2023-01-31T05:13:06;102250.0;;;4.9;87.5
56594;BME280;42474;51.660;5.824;2023-01-31T05:18:05;102270.0;;;4.8;87.0
56594;BME280;42474;51.660;5.824;2023-01-31T05:23:06;102250.0;;;4.8;87.5
56594;BME280;42474;51.660;5.824;2023-01-31T05:28:05;102250.0;;;4.8;88.0
56594;BME280;42474;51.660;5.824;2023-01-31T05:33:05;102250.0;;;4.8;88.0
56594;BME280;42474;51.660;5.824;2023-01-31T05:38:05;102240.0;;;4.8;88.0
56594;BME280;42474;51.660;5.824;2023-01-31T05:43:06;102240.0;;;4.8;88.5
56594;BME280;42474;51.660;5.824;2023-01-31T05:48:06;102230.0;;;4.9;88.5
56594;BME280;42474;51.660;5.824;2023-01-31T05:53:06;102230.0;;;4.9;88.5
56594;BME280;42474;51.660;5.824;2023-01-31T05:58:05;102210.0;;;4.9;88.5
56594;BME280;42474;51.660;5.824;2023-01-31T06:03:06;102230.0;;;4.9;88.5
56594;BME280;42474;51.660;5.824;2023-01-31T06:08:06;102210.0;;;4.9;88.5
56594;BME280;42474;51.660;5.824;2023-01-31T06:13:05;102210.0;;;5.0;88.5
56594;BME280;42474;51.660;5.824;2023-01-31T06:18:06;102230.0;;;5.0;88.0
56594;BME280;42474;51.660;5.824;2023-01-31T06:23:06;102230.0;;;5.1;88.0
56594;BME280;42474;51.660;5.824;2023-01-31T06:28:06;102230.0;;;5.1;87.5
56594;BME280;42474;51.660;5.824;2023-01-31T06:33:06;102220.0;;;5.1;87.0
56594;BME280;42474;51.660;5.824;2023-01-31T06:38:06;102220.0;;;5.2;87.0
56594;BME280;42474;51.660;5.824;2023-01-31T06:43:06;102210.0;;;5.2;86.5
56594;BME280;42474;51.660;5.824;2023-01-31T06:48:06;102210.0;;;5.2;86.5
56594;BME280;42474;51.660;5.824;2023-01-31T06:53:06;102180.0;;;5.2;86.0
56594;BME280;42474;51.660;5.824;2023-01-31T06:58:06;102200.0;;;5.2;86.0
56594;BME280;42474;51.660;5.824;2023-01-31T07:03:06;102190.0;;;5.2;85.5
56594;BME280;42474;51.660;5.824;2023-01-31T07:08:06;102210.0;;;5.2;85.5
56594;BME280;42474;51.660;5.824;2023-01-31T07:18:06;102170.0;;;5.2;85.5
56594;BME280;42474;51.660;5.824;2023-01-31T07:23:06;102160.0;;;5.2;85.5
56594;BME280;42474;51.660;5.824;2023-01-31T07:28:06;102170.0;;;5.2;85.5
56594;BME280;42474;51.660;5.824;2023-01-31T07:33:06;102160.0;;;5.2;86.0
56594;BME280;42474;51.660;5.824;2023-01-31T07:38:06;102160.0;;;5.2;86.5
56594;BME280;42474;51.660;5.824;2023-01-31T07:43:06;102170.0;;;5.3;86.5
56594;BME280;42474;51.660;5.824;2023-01-31T07:48:06;102170.0;;;5.3;87.0
56594;BME280;42474;51.660;5.824;2023-01-31T07:53:06;102150.0;;;5.3;87.0
56594;BME280;42474;51.660;5.824;2023-01-31T07:58:06;102170.0;;;5.4;87.0
56594;BME280;42474;51.660;5.824;2023-01-31T08:03:12;102150.0;;;5.4;87.0
56594;BME280;42474;51.660;5.824;2023-01-31T08:08:06;102140.0;;;5.5;87.0
56594;BME280;42474;51.660;5.824;2023-01-31T08:13:06;102140.0;;;5.6;86.5
56594;BME280;42474;51.660;5.824;2023-01-31T08:18:06;102140.0;;;5.6;86.5
56594;BME280;42474;51.660;5.824;2023-01-31T08:23:06;102140.0;;;5.7;86.0
56594;BME280;42474;51.660;5.824;2023-01-31T08:28:06;102130.0;;;5.8;86.0
56594;BME280;42474;51.660;5.824;2023-01-31T08:33:06;102130.0;;;5.8;86.0
56594;BME280;42474;51.660;5.824;2023-01-31T08:38:06;102110.0;;;5.9;85.5
56594;BME280;42474;51.660;5.824;2023-01-31T08:43:07;102120.0;;;6.0;85.0
56594;BME280;42474;51.660;5.824;2023-01-31T08:48:06;102110.0;;;6.0;85.0
56594;BME280;42474;51.660;5.824;2023-01-31T08:53:06;102100.0;;;6.1;85.0
56594;BME280;42474;51.660;5.824;2023-01-31T09:03:06;102090.0;;;6.3;84.0
56594;BME280;42474;51.660;5.824;2023-01-31T09:08:06;102070.0;;;6.4;84.0
56594;BME280;42474;51.660;5.824;2023-01-31T09:13:06;102080.0;;;6.5;83.5
56594;BME280;42474;51.660;5.824;2023-01-31T09:18:06;102070.0;;;6.6;83.0
56594;BME280;42474;51.660;5.824;2023-01-31T09:23:06;102070.0;;;6.7;83.0
56594;BME280;42474;51.660;5.824;2023-01-31T09:28:06;102060.0;;;6.8;82.5
56594;BME280;42474;51.660;5.824;2023-01-31T09:33:06;102060.0;;;6.9;82.5
56594;BME280;42474;51.660;5.824;2023-01-31T09:38:06;102080.0;;;7.0;82.0
56594;BME280;42474;51.660;5.824;2023-01-31T09:43:11;102060.0;;;7.1;82.0
56594;BME280;42474;51.660;5.824;2023-01-31T09:48:06;102050.0;;;7.2;81.5
56594;BME280;42474;51.660;5.824;2023-01-31T09:53:09;102050.0;;;7.2;81.5
56594;BME280;42474;51.660;5.824;2023-01-31T09:58:22;102060.0;;;7.3;81.5
56594;BME280;42474;51.660;5.824;2023-01-31T10:03:47;102050.0;;;7.4;81.0
56594;BME280;42474;51.660;5.824;2023-01-31T10:08:11;102030.0;;;7.4;81.0
56594;BME280;42474;51.660;5.824;2023-01-31T10:13:16;102040.0;;;7.5;81.5
56594;BME280;42474;51.660;5.824;2023-01-31T10:18:14;102030.0;;;7.6;81.0
56594;BME280;42474;51.660;5.824;2023-01-31T10:23:12;102050.0;;;7.6;81.0
56594;BME280;42474;51.660;5.824;2023-01-31T10:28:11;102040.0;;;7.7;81.0
56594;BME280;42474;51.660;5.824;2023-01-31T10:33:27;102040.0;;;7.7;80.5
56594;BME280;42474;51.660;5.824;2023-01-31T10:38:12;102040.0;;;7.7;81.0
56594;BME280;42474;51.660;5.824;2023-01-31T10:43:13;102040.0;;;7.7;81.0
56594;BME280;42474;51.660;5.824;2023-01-31T10:48:13;102030.0;;;7.7;81.5
56594;BME280;42474;51.660;5.824;2023-01-31T10:54:14;102020.0;;;7.8;81.5
56594;BME280;42474;51.660;5.824;2023-01-31T10:58:07;102020.0;;;7.8;81.5
56594;BME280;42474;51.660;5.824;2023-01-31T11:03:06;102020.0;;;7.9;82.0
56594;BME280;42474;51.660;5.824;2023-01-31T11:08:22;102020.0;;;8.0;82.5
56594;BME280;42474;51.660;5.824;2023-01-31T11:13:16;101990.0;;;8.1;82.0
56594;BME280;42474;51.660;5.824;2023-01-31T11:18:11;102000.0;;;8.2;82.0
56594;BME280;42474;51.660;5.824;2023-01-31T11:23:06;102000.0;;;8.2;81.5
56594;BME280;42474;51.660;5.824;2023-01-31T11:28:21;101990.0;;;8.3;81.5
56594;BME280;42474;51.660;5.824;2023-01-31T11:33:06;101990.0;;;8.3;81.0
56594;BME280;42474;51.660;5.824;2023-01-31T11:38:19;101990.0;;;8.3;81.5
56594;BME280;42474;51.660;5.824;2023-01-31T11:43:24;102000.0;;;8.3;81.5
56594;BME280;42474;51.660;5.824;2023-01-31T11:48:08;101990.0;;;8.4;82.0
56594;BME280;42474;51.660;5.824;2023-01-31T11:53:14;101990.0;;;8.3;81.5
56594;BME280;42474;51.660;5.824;2023-01-31T11:58:19;101980.0;;;8.4;81.5
56594;BME280;42474;51.660;5.824;2023-01-31T12:03:12;101980.0;;;8.4;81.5
56594;BME280;42474;51.660;5.824;2023-01-31T12:08:27;101980.0;;;8.4;81.5
56594;BME280;42474;51.660;5.824;2023-01-31T12:13:14;101970.0;;;8.4;81.5
56594;BME280;42474;51.660;5.824;2023-01-31T12:18:10;101970.0;;;8.3;82.0
56594;BME280;42474;51.660;5.824;2023-01-31T12:23:44;101970.0;;;8.3;82.5
56594;BME280;42474;51.660;5.824;2023-01-31T12:29:02;101960.0;;;8.3;83.5
56594;BME280;42474;51.660;5.824;2023-01-31T12:34:53;101950.0;;;8.3;84.0
56594;BME280;42474;51.660;5.824;2023-01-31T12:41:21;101960.0;;;8.3;85.0
56594;BME280;42474;51.660;5.824;2023-01-31T12:46:16;101960.0;;;8.2;86.5
56594;BME280;42474;51.660;5.824;2023-01-31T12:51:59;101970.0;;;8.2;87.5
56594;BME280;42474;51.660;5.824;2023-01-31T12:57:17;101950.0;;;8.1;88.0
56594;BME280;42474;51.660;5.824;2023-01-31T13:02:43;101950.0;;;8.0;89.0
56594;BME280;42474;51.660;5.824;2023-01-31T13:06:56;101950.0;;;8.0;90.5
56594;BME280;42474;51.660;5.824;2023-01-31T13:09:31;101940.0;;;7.9;91.0
56594;BME280;42474;51.660;5.824;2023-01-31T13:13:19;101940.0;;;7.9;91.0
56594;BME280;42474;51.660;5.824;2023-01-31T13:18:08;101940.0;;;8.0;91.5
56594;BME280;42474;51.660;5.824;2023-01-31T13:23:16;101940.0;;;7.9;92.5
56594;BME280;42474;51.660;5.824;2023-01-31T13:28:15;101950.0;;;7.9;92.5
56594;BME280;42474;51.660;5.824;2023-01-31T13:33:19;101940.0;;;8.0;93.0
56594;BME280;42474;51.660;5.824;2023-01-31T13:38:11;101940.0;;;8.0;94.0
56594;BME280;42474;51.660;5.824;2023-01-31T13:43:11;101940.0;;;8.0;94.0
56594;BME280;42474;51.660;5.824;2023-01-31T13:48:24;101930.0;;;8.0;94.5
56594;BME280;42474;51.660;5.824;2023-01-31T13:53:12;101920.0;;;8.1;94.5
56594;BME280;42474;51.660;5.824;2023-01-31T13:58:12;101920.0;;;8.2;95.0
56594;BME280;42474;51.660;5.824;2023-01-31T14:03:08;101910.0;;;8.3;95.0
56594;BME280;42474;51.660;5.824;2023-01-31T14:08:57;101900.0;;;8.3;95.0
56594;BME280;42474;51.660;5.824;2023-01-31T14:13:41;101910.0;;;8.4;95.0
56594;BME280;42474;51.660;5.824;2023-01-31T14:23:45;101930.0;;;8.6;94.5
56594;BME280;42474;51.660;5.824;2023-01-31T14:28:10;101950.0;;;8.6;94.0
56594;BME280;42474;51.660;5.824;2023-01-31T14:33:08;101950.0;;;8.7;94.0
56594;BME280;42474;51.660;5.824;2023-01-31T14:39:26;101960.0;;;8.7;94.0
56594;BME280;42474;51.660;5.824;2023-01-31T14:45:27;101960.0;;;8.7;93.5
56594;BME280;42474;51.660;5.824;2023-01-31T14:51:11;101980.0;;;8.8;93.5
56594;BME280;42474;51.660;5.824;2023-01-31T14:57:24;101970.0;;;8.8;93.0
56594;BME280;42474;51.660;5.824;2023-01-31T14:58:50;101970.0;;;8.8;92.5
56594;BME280;42474;51.660;5.824;2023-01-31T15:03:14;101980.0;;;8.9;92.5
56594;BME280;42474;51.660;5.824;2023-01-31T15:08:36;101980.0;;;9.0;92.0
56594;BME280;42474;51.660;5.824;2023-01-31T15:13:36;101990.0;;;9.0;91.5
56594;BME280;42474;51.660;5.824;2023-01-31T15:18:12;102000.0;;;9.1;91.5
56594;BME280;42474;51.660;5.824;2023-01-31T15:23:14;102010.0;;;9.2;91.0
56594;BME280;42474;51.660;5.824;2023-01-31T15:28:09;101990.0;;;9.2;90.0
56594;BME280;42474;51.660;5.824;2023-01-31T15:33:12;101990.0;;;9.2;90.0
56594;BME280;42474;51.660;5.824;2023-01-31T15:38:25;102000.0;;;9.2;89.5
56594;BME280;42474;51.660;5.824;2023-01-31T15:43:15;102000.0;;;9.2;89.0
56594;BME280;42474;51.660;5.824;2023-01-31T15:48:16;101990.0;;;9.1;88.0
56594;BME280;42474;51.660;5.824;2023-01-31T15:53:13;102000.0;;;9.1;88.0
56594;BME280;42474;51.660;5.824;2023-01-31T15:58:06;102000.0;;;9.1;88.0
56594;BME280;42474;51.660;5.824;2023-01-31T16:03:06;102000.0;;;9.1;87.5
56594;BME280;42474;51.660;5.824;2023-01-31T16:08:16;102010.0;;;9.0;87.0
56594;BME280;42474;51.660;5.824;2023-01-31T16:13:07;102020.0;;;9.0;87.5
56594;BME280;42474;51.660;5.824;2023-01-31T16:18:09;102020.0;;;8.9;87.5
56594;BME280;42474;51.660;5.824;2023-01-31T16:23:21;102020.0;;;9.0;88.0
56594;BME280;42474;51.660;5.824;2023-01-31T16:28:10;102030.0;;;9.0;87.5
56594;BME280;42474;51.660;5.824;2023-01-31T16:33:13;102030.0;;;9.0;87.5
56594;BME280;42474;51.660;5.824;2023-01-31T16:38:25;102030.0;;;9.0;87.5
56594;BME280;42474;51.660;5.824;2023-01-31T16:43:21;102050.0;;;9.0;87.5
56594;BME280;42474;51.660;5.824;2023-01-31T16:48:19;102040.0;;;9.0;87.5
56594;BME280;42474;51.660;5.824;2023-01-31T16:53:17;102050.0;;;9.0;87.5
56594;BME280;42474;51.660;5.824;2023-01-31T16:58:07;102040.0;;;9.0;86.5
56594;BME280;42474;51.660;5.824;2023-01-31T17:03:17;102050.0;;;9.0;86.5
56594;BME280;42474;51.660;5.824;2023-01-31T17:08:12;102040.0;;;9.0;86.0
56594;BME280;42474;51.660;5.824;2023-01-31T17:13:13;102040.0;;;9.0;84.0
56594;BME280;42474;51.660;5.824;2023-01-31T17:18:08;102040.0;;;9.0;83.0
56594;BME280;42474;51.660;5.824;2023-01-31T17:23:08;102040.0;;;8.9;82.5
56594;BME280;42474;51.660;5.824;2023-01-31T17:28:06;102040.0;;;8.8;82.0
56594;BME280;42474;51.660;5.824;2023-01-31T17:33:12;102020.0;;;8.7;81.5
56594;BME280;42474;51.660;5.824;2023-01-31T17:38:06;102030.0;;;8.7;81.0
56594;BME280;42474;51.660;5.824;2023-01-31T17:43:06;102030.0;;;8.6;81.0
56594;BME280;42474;51.660;5.824;2023-01-31T17:48:06;102040.0;;;8.5;81.0
56594;BME280;42474;51.660;5.824;2023-01-31T17:53:06;102040.0;;;8.5;81.5
56594;BME280;42474;51.660;5.824;2023-01-31T17:58:10;102040.0;;;8.4;81.5
56594;BME280;42474;51.660;5.824;2023-01-31T18:03:06;102040.0;;;8.3;82.5
56594;BME280;42474;51.660;5.824;2023-01-31T18:08:06;102040.0;;;8.3;83.0
56594;BME280;42474;51.660;5.824;2023-01-31T18:13:06;102040.0;;;8.3;83.5
56594;BME280;42474;51.660;5.824;2023-01-31T18:18:07;102030.0;;;8.2;84.5
56594;BME280;42474;51.660;5.824;2023-01-31T18:23:06;102030.0;;;8.2;85.0
56594;BME280;42474;51.660;5.824;2023-01-31T18:28:06;102040.0;;;8.2;85.0
56594;BME280;42474;51.660;5.824;2023-01-31T18:33:06;102040.0;;;8.1;85.0
56594;BME280;42474;51.660;5.824;2023-01-31T18:38:06;102060.0;;;8.1;85.5
56594;BME280;42474;51.660;5.824;2023-01-31T18:43:06;102060.0;;;8.0;86.0
56594;BME280;42474;51.660;5.824;2023-01-31T18:48:06;102060.0;;;7.9;86.5
56594;BME280;42474;51.660;5.824;2023-01-31T18:53:06;102060.0;;;7.9;86.5
56594;BME280;42474;51.660;5.824;2023-01-31T18:58:06;102070.0;;;7.9;86.5
56594;BME280;42474;51.660;5.824;2023-01-31T19:03:06;102070.0;;;7.9;86.0
56594;BME280;42474;51.660;5.824;2023-01-31T19:08:06;102060.0;;;7.8;86.0
56594;BME280;42474;51.660;5.824;2023-01-31T19:13:06;102050.0;;;7.7;86.0
56594;BME280;42474;51.660;5.824;2023-01-31T19:18:06;102070.0;;;7.7;86.0
56594;BME280;42474;51.660;5.824;2023-01-31T19:23:06;102070.0;;;7.6;86.0
56594;BME280;42474;51.660;5.824;2023-01-31T19:28:06;102070.0;;;7.5;86.0
56594;BME280;42474;51.660;5.824;2023-01-31T19:33:06;102080.0;;;7.5;86.5
56594;BME280;42474;51.660;5.824;2023-01-31T19:38:06;102080.0;;;7.4;86.5
56594;BME280;42474;51.660;5.824;2023-01-31T19:43:06;102060.0;;;7.3;87.0
56594;BME280;42474;51.660;5.824;2023-01-31T19:48:06;102060.0;;;7.3;87.0
56594;BME280;42474;51.660;5.824;2023-01-31T19:53:06;102080.0;;;7.2;87.0
56594;BME280;42474;51.660;5.824;2023-01-31T19:58:06;102070.0;;;7.1;87.0
56594;BME280;42474;51.660;5.824;2023-01-31T20:03:06;102070.0;;;7.1;87.5
56594;BME280;42474;51.660;5.824;2023-01-31T20:08:06;102060.0;;;7.0;87.5
56594;BME280;42474;51.660;5.824;2023-01-31T20:13:06;102070.0;;;7.0;88.0
56594;BME280;42474;51.660;5.824;2023-01-31T20:18:06;102070.0;;;6.9;88.0
56594;BME280;42474;51.660;5.824;2023-01-31T20:23:06;102070.0;;;6.9;88.5
56594;BME280;42474;51.660;5.824;2023-01-31T20:28:06;102080.0;;;6.9;88.5
56594;BME280;42474;51.660;5.824;2023-01-31T20:33:06;102070.0;;;6.8;88.5
56594;BME280;42474;51.660;5.824;2023-01-31T20:38:06;102060.0;;;6.8;88.5
56594;BME280;42474;51.660;5.824;2023-01-31T20:43:06;102070.0;;;6.7;88.5
56594;BME280;42474;51.660;5.824;2023-01-31T20:48:06;102060.0;;;6.7;89.0
56594;BME280;42474;51.660;5.824;2023-01-31T20:53:16;102050.0;;;6.7;89.5
56594;BME280;42474;51.660;5.824;2023-01-31T20:58:06;102050.0;;;6.7;90.0
56594;BME280;42474;51.660;5.824;2023-01-31T21:03:06;102050.0;;;6.7;90.5
56594;BME280;42474;51.660;5.824;2023-01-31T21:08:06;102050.0;;;6.8;90.5
56594;BME280;42474;51.660;5.824;2023-01-31T21:13:06;102050.0;;;6.7;90.5
56594;BME280;42474;51.660;5.824;2023-01-31T21:18:06;102050.0;;;6.7;90.0
56594;BME280;42474;51.660;5.824;2023-01-31T21:23:06;102050.0;;;6.7;90.0
56594;BME280;42474;51.660;5.824;2023-01-31T21:28:06;102040.0;;;6.6;90.0
56594;BME280;42474;51.660;5.824;2023-01-31T21:33:06;102040.0;;;6.6;90.0
56594;BME280;42474;51.660;5.824;2023-01-31T21:38:06;102040.0;;;6.5;90.0
56594;BME280;42474;51.660;5.824;2023-01-31T21:43:06;102030.0;;;6.5;90.0
56594;BME280;42474;51.660;5.824;2023-01-31T21:48:08;102020.0;;;6.5;90.5
56594;BME280;42474;51.660;5.824;2023-01-31T21:53:06;102010.0;;;6.4;90.5
56594;BME280;42474;51.660;5.824;2023-01-31T21:58:06;102010.0;;;6.4;90.5
56594;BME280;42474;51.660;5.824;2023-01-31T22:03:06;102000.0;;;6.4;90.5
56594;BME280;42474;51.660;5.824;2023-01-31T22:08:06;101990.0;;;6.4;90.0
56594;BME280;42474;51.660;5.824;2023-01-31T22:13:06;101990.0;;;6.4;90.0
56594;BME280;42474;51.660;5.824;2023-01-31T22:18:06;101990.0;;;6.4;89.5
56594;BME280;42474;51.660;5.824;2023-01-31T22:23:06;102000.0;;;6.4;89.0
56594;BME280;42474;51.660;5.824;2023-01-31T22:28:06;102000.0;;;6.4;88.5
56594;BME280;42474;51.660;5.824;2023-01-31T22:33:06;101990.0;;;6.4;86.5
56594;BME280;42474;51.660;5.824;2023-01-31T22:38:06;102000.0;;;6.4;85.0
56594;BME280;42474;51.660;5.824;2023-01-31T22:43:06;102000.0;;;6.4;85.0
56594;BME280;42474;51.660;5.824;2023-01-31T22:48:06;101990.0;;;6.4;84.0
56594;BME280;42474;51.660;5.824;2023-01-31T22:53:07;102000.0;;;6.3;83.5
56594;BME280;42474;51.660;5.824;2023-01-31T22:58:08;102000.0;;;6.2;83.0
56594;BME280;42474;51.660;5.824;2023-01-31T23:03:06;101990.0;;;6.2;83.0
56594;BME280;42474;51.660;5.824;2023-01-31T23:08:06;101980.0;;;6.1;82.5
56594;BME280;42474;51.660;5.824;2023-01-31T23:13:07;101980.0;;;6.0;82.0
56594;BME280;42474;51.660;5.824;2023-01-31T23:18:06;102000.0;;;5.9;81.5
56594;BME280;42474;51.660;5.824;2023-01-31T23:23:06;102000.0;;;5.8;81.5
56594;BME280;42474;51.660;5.824;2023-01-31T23:28:06;102010.0;;;5.7;81.5
56594;BME280;42474;51.660;5.824;2023-01-31T23:33:06;102010.0;;;5.7;81.5
56594;BME280;42474;51.660;5.824;2023-01-31T23:38:06;102000.0;;;5.6;81.5
56594;BME280;42474;51.660;5.824;2023-01-31T23:43:07;102010.0;;;5.6;81.5
56594;BME280;42474;51.660;5.824;2023-01-31T23:48:06;101990.0;;;5.5;81.5
56594;BME280;42474;51.660;5.824;2023-01-31T23:53:06;101980.0;;;5.5;81.5
56594;BME280;42474;51.660;5.824;2023-01-31T23:58:06;101980.0;;;5.4;82.0
